Norfolk, Virginia
Traffic Map
Current Weather Conditions
Norfolk, Virginia
Few Clouds
Few Clouds
61°
Feels Like: 61°
Wind Chill: 61° Ceiling: Unl
Heat Index: 61° Visibility: 10mi
Dew Point: 43° Wind: 9mph
Humidity: 52% Direction: 330° (NNW)
Pressure: 29.87in Gusts: 23mph
Raw Report DataKORF 231551Z AUTO 33008G20KT 10SM FEW035 16/06 A2987 RMK AO2 SLP115 T01610061 TSNO
Traffic Incident Summary
Active as of:
Severity:
Category:
InformationThere was an issue retrieving the traffic information for this location. Please try a different location or try again shortly.
Advertisements
Track Severe Weather on mobile